Time;durP1;ratioP1;P1;durP2;ratioP2;P2;SDS_P1;SDS_P2;PMS_P1;PMS_P2;Temp;Humidity;BMP_temperature;BMP_pressure;BME280_temperature;BME280_humidity;BME280_pressure;Samples;Min_cycle;Max_cycle;Signal;HPM_P1;HPM_P2
2023/12/14 00:01:32;;;;;;;46.07;26.27;;;10.40;99.90;;;;;;5113133;28;20626;-72
2023/12/14 00:03:57;;;;;;;49.10;26.73;;;10.30;99.90;;;;;;5095118;28;20515;-70
2023/12/14 00:06:23;;;;;;;49.97;26.37;;;10.30;99.90;;;;;;5113313;28;20195;-70
2023/12/14 00:08:48;;;;;;;46.77;25.53;;;10.30;99.90;;;;;;5114403;28;20262;-70
2023/12/14 00:11:14;;;;;;;47.90;26.40;;;10.30;99.90;;;;;;5117295;28;20195;-71
2023/12/14 00:13:40;;;;;;;45.23;25.20;;;10.40;99.90;;;;;;5117418;28;20175;-70
2023/12/14 00:16:06;;;;;;;43.77;25.13;;;10.40;99.90;;;;;;5117024;28;20216;-70
2023/12/14 00:18:31;;;;;;;47.13;25.27;;;10.50;99.90;;;;;;5117275;28;20183;-69
2023/12/14 00:20:57;;;;;;;46.17;24.00;;;10.60;99.90;;;;;;5116952;28;20335;-71
2023/12/14 00:23:23;;;;;;;44.37;23.63;;;10.60;99.90;;;;;;5117105;28;20175;-69
2023/12/14 00:25:49;;;;;;;43.63;24.73;;;10.50;99.90;;;;;;5116796;28;20197;-69
2023/12/14 00:28:14;;;;;;;45.60;25.27;;;10.40;99.90;;;;;;5117015;28;20667;-69
2023/12/14 00:30:40;;;;;;;47.97;25.83;;;10.50;99.90;;;;;;5116711;28;20472;-70
2023/12/14 00:33:06;;;;;;;45.47;25.50;;;10.50;99.90;;;;;;5116757;28;20172;-71
2023/12/14 00:35:31;;;;;;;45.80;24.90;;;10.50;99.90;;;;;;5116921;28;20175;-71
2023/12/14 00:37:57;;;;;;;44.90;24.37;;;10.50;99.90;;;;;;5116701;28;20179;-69
2023/12/14 00:40:22;;;;;;;45.90;24.80;;;10.50;99.90;;;;;;5116828;28;20249;-70
2023/12/14 00:42:48;;;;;;;38.30;22.27;;;10.50;99.90;;;;;;5116589;28;20179;-70
2023/12/14 00:45:14;;;;;;;41.97;24.03;;;10.50;99.90;;;;;;5116535;28;20175;-71
2023/12/14 00:47:39;;;;;;;44.93;25.03;;;10.50;99.90;;;;;;5098270;28;20210;-70
2023/12/14 00:50:05;;;;;;;43.67;24.80;;;10.40;99.90;;;;;;5116529;28;20171;-69
2023/12/14 00:52:31;;;;;;;45.43;25.43;;;10.50;99.90;;;;;;5098201;28;20644;-69
2023/12/14 00:54:56;;;;;;;46.00;25.23;;;10.50;99.90;;;;;;5116616;28;20171;-70
2023/12/14 00:57:22;;;;;;;47.30;25.83;;;10.50;99.90;;;;;;5116430;28;20653;-69
2023/12/14 00:59:47;;;;;;;42.80;24.30;;;10.50;99.90;;;;;;5116205;28;20174;-69
2023/12/14 01:02:13;;;;;;;45.33;25.73;;;10.60;99.90;;;;;;5116545;28;20183;-70
2023/12/14 01:04:38;;;;;;;47.27;24.97;;;10.50;99.90;;;;;;5116253;28;20178;-70
2023/12/14 01:07:04;;;;;;;44.90;25.83;;;10.50;99.90;;;;;;5116335;28;20256;-69
2023/12/14 01:09:30;;;;;;;49.67;25.50;;;10.60;99.90;;;;;;5116510;28;20618;-69
2023/12/14 01:11:56;;;;;;;46.13;25.03;;;10.60;99.90;;;;;;5116215;28;20168;-69
2023/12/14 01:14:21;;;;;;;49.40;27.37;;;10.60;99.90;;;;;;5115633;28;20610;-69
2023/12/14 01:16:47;;;;;;;50.50;27.60;;;10.60;99.90;;;;;;5116043;28;20175;-70
2023/12/14 01:19:12;;;;;;;56.33;31.17;;;10.50;99.90;;;;;;5115516;28;20199;-70
2023/12/14 01:21:38;;;;;;;54.67;29.53;;;10.50;99.90;;;;;;5115979;28;20236;-69
2023/12/14 01:24:04;;;;;;;57.23;29.90;;;10.50;99.90;;;;;;5115994;28;20198;-70
2023/12/14 01:26:29;;;;;;;60.83;30.97;;;10.40;99.90;;;;;;5115642;28;20226;-69
2023/12/14 01:28:55;;;;;;;53.40;29.13;;;10.30;99.90;;;;;;5115346;28;20171;-69
2023/12/14 01:31:23;;;;;;;61.17;31.17;;;10.30;99.90;;;;;;5115880;28;20198;-69
2023/12/14 01:33:49;;;;;;;59.63;30.17;;;10.30;99.90;;;;;;5115741;28;20610;-70
2023/12/14 01:36:24;;;;;;;64.47;32.37;;;10.30;99.90;;;;;;5115652;28;20190;-70
2023/12/14 01:38:50;;;;;;;62.40;31.00;;;10.30;99.90;;;;;;5115521;28;20645;-68
2023/12/14 01:41:16;;;;;;;59.53;31.23;;;10.30;99.90;;;;;;5115538;28;20258;-70
2023/12/14 01:43:41;;;;;;;61.67;32.23;;;10.30;99.90;;;;;;5115202;28;20305;-70
2023/12/14 01:46:07;;;;;;;59.50;30.57;;;10.30;99.90;;;;;;5115433;28;20664;-70
2023/12/14 01:48:33;;;;;;;60.43;31.27;;;10.30;99.90;;;;;;5115430;28;20224;-70
2023/12/14 01:50:58;;;;;;;62.33;30.87;;;10.30;99.90;;;;;;5115539;28;20645;-70
2023/12/14 01:53:24;;;;;;;56.73;29.97;;;10.20;99.90;;;;;;5115256;28;20217;-70
2023/12/14 01:55:50;;;;;;;57.90;30.40;;;10.30;99.90;;;;;;5115419;28;20199;-70
2023/12/14 01:58:16;;;;;;;57.87;29.37;;;10.30;99.90;;;;;;5115160;28;20171;-69
2023/12/14 02:01:07;;;;;;;53.17;29.07;;;10.30;99.90;;;;;;5115201;28;20231;-68
2023/12/14 02:03:33;;;;;;;59.07;29.47;;;10.30;99.90;;;;;;5115310;28;20664;-70
2023/12/14 02:05:58;;;;;;;46.50;25.77;;;10.30;99.90;;;;;;5115105;28;20167;-70
2023/12/14 02:08:24;;;;;;;45.87;24.00;;;10.20;99.90;;;;;;5114991;28;20175;-70
2023/12/14 02:10:50;;;;;;;43.37;24.00;;;10.00;99.90;;;;;;5114695;28;20174;-69
2023/12/14 02:13:16;;;;;;;41.33;23.33;;;10.00;99.90;;;;;;5114885;28;20262;-70
2023/12/14 02:15:42;;;;;;;39.37;22.87;;;9.90;99.90;;;;;;5114844;28;20590;-70
2023/12/14 02:18:07;;;;;;;40.00;23.43;;;9.70;99.90;;;;;;5114807;28;20622;-69
2023/12/14 02:20:33;;;;;;;42.43;24.13;;;9.70;99.90;;;;;;5114713;28;20206;-70
2023/12/14 02:22:58;;;;;;;43.57;24.00;;;9.60;99.90;;;;;;5114764;28;20160;-69
2023/12/14 02:25:24;;;;;;;45.00;24.47;;;9.50;99.90;;;;;;5096189;28;20167;-69
2023/12/14 02:27:51;;;;;;;39.40;23.20;;;9.60;99.90;;;;;;5114288;28;20223;-69
2023/12/14 02:30:18;;;;;;;47.63;25.70;;;9.60;99.90;;;;;;5114557;28;20166;-69
2023/12/14 02:32:43;;;;;;;48.93;28.17;;;9.60;99.90;;;;;;5113855;28;20227;-69
2023/12/14 02:35:09;;;;;;;50.73;26.90;;;9.70;99.90;;;;;;5114530;28;20621;-69
2023/12/14 02:37:40;;;;;;;51.40;28.47;;;9.80;99.90;;;;;;5114533;28;20248;-71
2023/12/14 02:40:06;;;;;;;48.70;27.87;;;9.80;99.90;;;;;;5114068;28;20160;-69
2023/12/14 02:42:32;;;;;;;51.57;28.10;;;9.80;99.90;;;;;;5114317;28;20179;-70
2023/12/14 02:44:58;;;;;;;48.37;26.80;;;9.70;99.90;;;;;;5114309;28;20578;-69
2023/12/14 02:47:23;;;;;;;50.83;27.80;;;9.60;99.90;;;;;;5114150;28;20399;-69
2023/12/14 02:49:49;;;;;;;50.33;26.87;;;9.40;99.90;;;;;;5114365;28;20167;-69
2023/12/14 02:52:15;;;;;;;48.57;27.60;;;9.50;99.90;;;;;;5114261;28;20175;-69
2023/12/14 02:54:41;;;;;;;48.53;27.13;;;9.50;99.90;;;;;;5095619;28;20163;-69
2023/12/14 02:57:06;;;;;;;49.07;28.00;;;9.50;99.90;;;;;;5095848;28;20205;-69
2023/12/14 02:59:32;;;;;;;47.57;27.13;;;9.60;99.90;;;;;;5114107;28;20585;-69
2023/12/14 03:01:58;;;;;;;55.90;29.13;;;9.60;99.90;;;;;;5114194;28;20168;-69
2023/12/14 03:04:23;;;;;;;55.57;29.80;;;9.50;99.90;;;;;;5114002;28;20175;-69
2023/12/14 03:06:49;;;;;;;56.27;30.43;;;9.40;99.90;;;;;;5114088;28;20203;-69
2023/12/14 03:09:14;;;;;;;58.23;30.60;;;9.30;99.90;;;;;;5113787;28;20605;-69
2023/12/14 03:11:40;;;;;;;62.90;38.13;;;9.30;99.90;;;;;;5114079;28;20508;-69
2023/12/14 03:14:06;;;;;;;56.63;30.17;;;9.20;99.90;;;;;;5113907;28;20256;-69
2023/12/14 03:16:31;;;;;;;55.77;30.33;;;9.20;99.90;;;;;;5114085;28;20766;-69
2023/12/14 03:18:57;;;;;;;59.63;31.63;;;9.00;99.90;;;;;;5113693;28;20183;-69
2023/12/14 03:21:23;;;;;;;57.30;29.90;;;9.10;99.90;;;;;;5114118;28;20641;-69
2023/12/14 03:23:49;;;;;;;49.10;27.90;;;9.00;99.90;;;;;;5113555;28;20171;-69
2023/12/14 03:26:15;;;;;;;53.97;28.93;;;8.90;99.90;;;;;;5113687;28;20206;-69
2023/12/14 03:28:41;;;;;;;54.57;30.13;;;8.90;99.90;;;;;;5095445;28;20178;-69
2023/12/14 03:31:06;;;;;;;52.17;29.00;;;8.90;99.90;;;;;;5113837;28;20199;-69
2023/12/14 03:33:32;;;;;;;47.43;28.57;;;9.00;99.90;;;;;;5113820;28;20174;-69
2023/12/14 03:35:58;;;;;;;44.33;26.93;;;9.10;99.90;;;;;;5113506;28;20236;-70
2023/12/14 03:38:23;;;;;;;38.80;23.87;;;9.10;99.90;;;;;;5113473;28;20171;-69
2023/12/14 03:40:49;;;;;;;39.17;23.20;;;9.00;99.90;;;;;;5113487;28;20171;-69
2023/12/14 03:43:14;;;;;;;34.83;22.03;;;9.00;99.90;;;;;;5115406;28;20183;-69
2023/12/14 03:45:40;;;;;;;34.10;20.23;;;8.80;99.90;;;;;;5117946;28;20174;-70
2023/12/14 03:48:05;;;;;;;32.57;20.30;;;8.70;99.90;;;;;;5117690;28;20210;-69
2023/12/14 03:50:32;;;;;;;29.63;18.53;;;8.70;99.90;;;;;;5117680;28;20626;-70
2023/12/14 03:52:58;;;;;;;31.57;18.80;;;8.70;99.90;;;;;;5117440;28;20292;-69
2023/12/14 03:55:24;;;;;;;30.10;17.77;;;8.70;99.90;;;;;;5117685;28;20658;-70
2023/12/14 03:57:49;;;;;;;29.50;18.10;;;8.80;99.90;;;;;;5117505;28;20253;-69
2023/12/14 04:00:15;;;;;;;30.67;18.53;;;8.70;99.90;;;;;;5117745;28;20167;-70
2023/12/14 04:02:41;;;;;;;26.30;17.13;;;8.70;99.90;;;;;;5117664;28;20237;-70
2023/12/14 04:05:11;;;;;;;30.53;18.90;;;8.60;99.90;;;;;;5117544;28;20167;-70
2023/12/14 04:07:40;;;;;;;29.70;18.80;;;8.60;99.90;;;;;;5098716;28;20217;-70
2023/12/14 04:10:10;;;;;;;29.50;18.30;;;8.50;99.90;;;;;;5117329;28;20254;-70
2023/12/14 04:12:39;;;;;;;29.87;18.47;;;8.50;99.90;;;;;;5117405;28;20217;-69
2023/12/14 04:15:07;;;;;;;28.27;18.03;;;8.50;99.90;;;;;;5116929;28;20171;-70
2023/12/14 04:17:33;;;;;;;27.87;18.27;;;8.50;99.90;;;;;;5116914;28;20179;-70
2023/12/14 04:19:59;;;;;;;27.23;17.97;;;8.40;99.90;;;;;;5116771;28;20199;-70
2023/12/14 04:22:24;;;;;;;27.07;17.40;;;8.40;99.90;;;;;;5116825;28;20634;-69
2023/12/14 04:24:51;;;;;;;29.20;18.63;;;8.50;99.90;;;;;;5116622;28;20186;-69
2023/12/14 04:27:17;;;;;;;29.03;19.27;;;8.40;99.90;;;;;;5116449;28;20623;-70
2023/12/14 04:29:42;;;;;;;26.00;17.63;;;8.40;99.90;;;;;;5116929;28;20171;-69
2023/12/14 04:32:08;;;;;;;26.83;19.27;;;8.30;99.90;;;;;;5116626;28;20175;-69
2023/12/14 04:34:33;;;;;;;27.10;18.83;;;8.40;99.90;;;;;;5097903;28;20183;-69
2023/12/14 04:36:59;;;;;;;29.17;19.43;;;8.40;99.90;;;;;;5116508;28;20179;-70
2023/12/14 04:39:25;;;;;;;26.23;19.57;;;8.40;99.90;;;;;;5116736;28;20186;-70
2023/12/14 04:41:52;;;;;;;30.67;19.03;;;8.20;99.90;;;;;;5116405;28;20274;-69
2023/12/14 04:44:18;;;;;;;28.50;19.53;;;8.20;99.90;;;;;;5116691;28;20175;-70
2023/12/14 04:46:43;;;;;;;28.93;20.93;;;8.20;99.90;;;;;;5116259;28;20306;-69
2023/12/14 04:49:09;;;;;;;27.43;19.87;;;8.30;99.90;;;;;;5116597;28;20268;-70
2023/12/14 04:51:34;;;;;;;30.57;20.83;;;8.20;99.90;;;;;;5115985;28;20308;-70
2023/12/14 04:54:00;;;;;;;30.37;21.37;;;8.20;99.90;;;;;;5115465;28;20172;-69
2023/12/14 04:56:26;;;;;;;30.00;20.47;;;8.20;99.90;;;;;;5115883;28;20563;-69
2023/12/14 04:58:51;;;;;;;31.20;21.20;;;8.20;99.90;;;;;;5116400;28;20175;-70
2023/12/14 05:01:17;;;;;;;28.80;20.37;;;8.10;99.90;;;;;;5116283;28;20516;-70
2023/12/14 05:03:43;;;;;;;29.57;20.93;;;8.20;99.90;;;;;;5115785;28;20172;-70
2023/12/14 05:06:09;;;;;;;28.90;19.70;;;8.20;99.90;;;;;;5115245;28;20167;-69
2023/12/14 05:08:35;;;;;;;28.43;20.60;;;8.10;99.90;;;;;;5115984;28;20346;-70
2023/12/14 05:11:01;;;;;;;27.90;19.73;;;8.20;99.90;;;;;;5115682;28;20167;-70
2023/12/14 05:13:26;;;;;;;26.67;19.70;;;8.10;99.90;;;;;;5116040;28;20235;-70
2023/12/14 05:15:52;;;;;;;27.13;19.97;;;8.10;99.90;;;;;;5115688;28;20219;-70
2023/12/14 05:18:18;;;;;;;25.53;19.43;;;8.00;99.90;;;;;;5115311;28;20198;-69
2023/12/14 05:20:45;;;;;;;28.57;19.77;;;8.00;99.90;;;;;;5115303;28;20251;-69
2023/12/14 05:23:11;;;;;;;27.13;19.73;;;8.10;99.90;;;;;;5115602;28;20258;-70
2023/12/14 05:25:37;;;;;;;27.00;20.10;;;8.00;99.90;;;;;;5115548;28;20598;-70
2023/12/14 05:28:02;;;;;;;25.77;18.87;;;8.00;99.90;;;;;;5115387;28;20234;-70
2023/12/14 05:30:28;;;;;;;26.03;19.20;;;8.10;99.90;;;;;;5114794;28;20171;-70
2023/12/14 05:32:54;;;;;;;26.23;19.37;;;8.10;99.90;;;;;;5114751;28;20607;-69
2023/12/14 05:35:19;;;;;;;24.00;18.77;;;8.10;99.90;;;;;;5096729;28;20223;-70
2023/12/14 05:37:45;;;;;;;23.50;18.90;;;8.20;99.90;;;;;;5114869;28;20224;-70
2023/12/14 05:40:11;;;;;;;25.00;18.57;;;8.10;99.90;;;;;;5114806;28;20175;-70
2023/12/14 05:42:37;;;;;;;26.10;19.17;;;8.10;99.90;;;;;;5115039;28;20630;-70
2023/12/14 05:45:03;;;;;;;26.60;19.33;;;8.00;99.90;;;;;;5114980;28;20179;-70
2023/12/14 05:47:30;;;;;;;27.90;19.13;;;7.90;99.90;;;;;;5114444;28;20642;-70
2023/12/14 05:49:55;;;;;;;27.03;19.17;;;8.00;99.90;;;;;;5114621;28;20163;-70
2023/12/14 05:52:21;;;;;;;27.00;20.20;;;7.90;99.90;;;;;;5114974;28;20236;-70
2023/12/14 05:54:46;;;;;;;28.20;20.63;;;8.00;99.90;;;;;;5114408;28;20517;-69
2023/12/14 05:57:12;;;;;;;24.70;18.87;;;8.10;99.90;;;;;;5114535;28;20632;-70
2023/12/14 05:59:39;;;;;;;28.87;19.13;;;8.00;99.90;;;;;;5114322;28;20614;-69
2023/12/14 06:02:06;;;;;;;26.07;18.80;;;8.00;99.90;;;;;;5113764;28;20175;-70
2023/12/14 06:04:32;;;;;;;25.03;19.03;;;8.10;99.90;;;;;;5113605;28;20657;-70
2023/12/14 06:06:58;;;;;;;25.10;18.50;;;8.10;99.90;;;;;;5112876;28;20218;-70
2023/12/14 06:09:31;;;;;;;23.40;18.07;;;8.00;99.90;;;;;;5113536;28;20179;-70
2023/12/14 06:11:57;;;;;;;23.03;17.50;;;8.00;99.90;;;;;;5114172;28;20179;-69
2023/12/14 06:14:22;;;;;;;25.00;18.67;;;8.10;99.90;;;;;;5113928;28;20541;-70
2023/12/14 06:16:48;;;;;;;27.37;19.03;;;8.10;99.90;;;;;;5113937;28;20864;-70
2023/12/14 06:19:13;;;;;;;26.83;18.80;;;8.00;99.90;;;;;;5094781;28;20199;-70
2023/12/14 06:21:39;;;;;;;22.63;17.70;;;8.00;99.90;;;;;;5113572;28;20499;-70
2023/12/14 06:24:05;;;;;;;25.80;18.73;;;7.90;99.90;;;;;;5113776;28;20174;-70
2023/12/14 06:26:31;;;;;;;26.60;19.00;;;7.90;99.90;;;;;;5094993;28;20227;-69
2023/12/14 06:28:56;;;;;;;25.93;19.13;;;8.00;99.90;;;;;;5113627;28;20263;-70
2023/12/14 06:31:22;;;;;;;23.77;18.53;;;8.00;99.90;;;;;;5112992;28;20164;-70
2023/12/14 06:33:48;;;;;;;23.87;17.63;;;8.00;99.90;;;;;;5094655;28;20232;-70
2023/12/14 06:36:17;;;;;;;26.27;18.27;;;8.00;99.90;;;;;;5113607;28;20179;-70
2023/12/14 06:38:44;;;;;;;26.20;17.30;;;8.00;99.90;;;;;;5113879;28;20280;-71
2023/12/14 06:41:18;;;;;;;23.47;18.03;;;8.00;99.90;;;;;;5113218;28;20211;-70
2023/12/14 06:43:44;;;;;;;25.70;18.43;;;7.90;99.90;;;;;;5112785;28;20206;-71
2023/12/14 06:46:09;;;;;;;26.57;18.47;;;7.90;99.90;;;;;;5112993;28;20511;-70
2023/12/14 06:48:35;;;;;;;25.23;18.17;;;7.90;99.90;;;;;;5112695;28;20167;-70
2023/12/14 06:51:00;;;;;;;23.97;17.77;;;8.00;99.90;;;;;;5112859;28;20215;-71
2023/12/14 06:53:26;;;;;;;25.40;17.83;;;8.00;99.90;;;;;;5094819;28;20179;-71
2023/12/14 06:55:51;;;;;;;24.30;17.00;;;8.00;99.90;;;;;;5112859;28;20330;-70
2023/12/14 06:58:17;;;;;;;24.00;16.50;;;8.00;99.90;;;;;;5112139;28;20167;-71
2023/12/14 07:00:43;;;;;;;25.30;16.93;;;8.10;99.90;;;;;;5112344;28;20179;-70
2023/12/14 07:03:08;;;;;;;26.60;16.77;;;8.10;99.90;;;;;;5112250;28;20242;-71
2023/12/14 07:05:34;;;;;;;21.27;15.90;;;8.20;99.90;;;;;;5094161;28;20232;-71
2023/12/14 07:08:00;;;;;;;20.57;15.27;;;8.20;99.90;;;;;;5112201;28;20318;-71
2023/12/14 07:10:26;;;;;;;23.83;15.63;;;8.10;99.90;;;;;;5112293;28;20715;-70
2023/12/14 07:12:52;;;;;;;17.93;12.97;;;8.10;99.90;;;;;;5112314;28;20268;-71
2023/12/14 07:15:18;;;;;;;19.80;13.97;;;7.90;99.90;;;;;;5112024;28;20167;-72
2023/12/14 07:17:44;;;;;;;19.57;13.37;;;7.80;99.90;;;;;;5111982;28;20194;-71
2023/12/14 07:20:10;;;;;;;19.30;13.80;;;7.70;99.90;;;;;;5111974;28;20179;-71
2023/12/14 07:22:35;;;;;;;20.07;13.73;;;7.60;99.90;;;;;;5112011;28;20578;-72
2023/12/14 07:25:01;;;;;;;24.17;14.33;;;7.50;99.90;;;;;;5111752;28;20186;-71
2023/12/14 07:27:27;;;;;;;18.47;13.60;;;7.40;99.90;;;;;;5111803;28;20222;-70
2023/12/14 07:29:54;;;;;;;21.17;13.97;;;7.30;99.90;;;;;;5091890;28;20204;-71
2023/12/14 07:32:19;;;;;;;20.87;13.93;;;7.30;99.90;;;;;;5072546;28;20230;-72
2023/12/14 07:34:45;;;;;;;25.63;14.93;;;7.30;99.90;;;;;;5073628;28;20630;-72
2023/12/14 07:37:11;;;;;;;22.70;14.80;;;7.20;99.90;;;;;;5092579;28;20266;-71
2023/12/14 07:39:37;;;;;;;21.47;14.70;;;7.30;99.90;;;;;;5073667;28;20175;-70
2023/12/14 07:42:03;;;;;;;19.47;14.23;;;7.30;99.90;;;;;;5091207;28;20172;-71
2023/12/14 07:44:29;;;;;;;24.23;14.80;;;7.40;99.90;;;;;;5091302;28;20262;-71
2023/12/14 07:47:04;;;;;;;20.60;14.50;;;7.50;99.90;;;;;;5091129;28;20246;-71
2023/12/14 07:49:30;;;;;;;22.70;14.23;;;7.60;99.90;;;;;;5091809;28;20698;-72
2023/12/14 07:51:55;;;;;;;21.03;13.57;;;7.70;99.90;;;;;;5090934;28;20207;-72
2023/12/14 07:54:22;;;;;;;18.00;13.43;;;7.70;99.90;;;;;;5091388;28;20179;-71
2023/12/14 07:56:47;;;;;;;18.83;12.80;;;7.70;99.90;;;;;;5091282;28;20183;-72
2023/12/14 07:59:13;;;;;;;19.03;13.07;;;7.80;99.90;;;;;;5091533;28;20164;-71
2023/12/14 08:01:38;;;;;;;20.27;13.07;;;7.70;99.90;;;;;;5090917;28;20180;-72
2023/12/14 08:04:04;;;;;;;20.03;12.80;;;7.80;99.90;;;;;;5091892;28;20544;-72
2023/12/14 08:06:30;;;;;;;19.33;12.90;;;7.90;99.90;;;;;;5091613;28;20618;-71
2023/12/14 08:08:57;;;;;;;18.00;12.30;;;7.90;99.90;;;;;;5090398;28;20259;-71
2023/12/14 08:11:23;;;;;;;17.63;12.20;;;8.00;99.90;;;;;;5086399;28;20635;-71
2023/12/14 08:13:49;;;;;;;18.97;13.17;;;8.10;99.90;;;;;;5090916;28;20188;-70
2023/12/14 08:16:17;;;;;;;22.63;13.20;;;8.10;99.90;;;;;;5090006;28;20221;-71
2023/12/14 08:18:44;;;;;;;16.87;12.20;;;8.30;99.90;;;;;;5091163;28;20172;-71
2023/12/14 08:21:10;;;;;;;14.13;11.03;;;8.40;99.90;;;;;;5090933;28;20218;-70
2023/12/14 08:23:36;;;;;;;15.10;11.53;;;8.50;99.90;;;;;;5086675;28;20180;-70
2023/12/14 08:26:02;;;;;;;14.37;11.20;;;8.60;99.90;;;;;;5089806;28;20271;-71
2023/12/14 08:28:28;;;;;;;14.90;10.87;;;8.70;99.90;;;;;;5080178;28;20211;-71
2023/12/14 08:30:53;;;;;;;14.83;9.97;;;8.80;99.90;;;;;;5085804;28;20163;-71
2023/12/14 08:33:19;;;;;;;19.23;10.40;;;9.10;99.90;;;;;;5086469;28;20200;-72
2023/12/14 08:35:45;;;;;;;16.53;9.67;;;9.50;99.90;;;;;;5090517;28;20168;-71
2023/12/14 08:38:11;;;;;;;11.93;8.73;;;9.90;99.90;;;;;;5102347;28;20259;-73
2023/12/14 08:40:37;;;;;;;13.87;8.40;;;10.10;99.90;;;;;;5093774;28;20179;-71
2023/12/14 08:43:03;;;;;;;18.73;9.37;;;10.20;99.90;;;;;;5093273;28;20176;-71
2023/12/14 08:45:29;;;;;;;23.30;8.63;;;10.20;99.90;;;;;;5094005;28;20255;-70
2023/12/14 08:47:54;;;;;;;11.23;8.13;;;10.30;99.90;;;;;;5094140;28;20307;-70
2023/12/14 08:50:20;;;;;;;11.57;8.30;;;10.80;99.90;;;;;;5094116;28;20176;-70
2023/12/14 08:52:46;;;;;;;10.70;8.40;;;11.30;99.90;;;;;;5093867;28;20608;-72
2023/12/14 08:55:12;;;;;;;8.57;7.33;;;12.20;99.90;;;;;;5094968;28;20164;-71
2023/12/14 08:57:39;;;;;;;13.47;7.73;;;13.00;99.90;;;;;;5091075;28;20543;-69
2023/12/14 09:00:06;;;;;;;9.83;7.20;;;13.70;99.90;;;;;;5094279;28;20511;-71
2023/12/14 09:02:32;;;;;;;11.80;8.40;;;14.10;99.90;;;;;;5093978;28;20210;-70
2023/12/14 09:04:58;;;;;;;10.50;7.70;;;14.60;99.90;;;;;;5094387;28;20186;-70
2023/12/14 09:07:24;;;;;;;11.43;8.33;;;14.80;99.90;;;;;;5092118;28;20203;-71
2023/12/14 09:09:49;;;;;;;12.23;8.20;;;14.80;99.90;;;;;;5093961;28;20508;-71
2023/12/14 09:12:15;;;;;;;12.13;8.70;;;14.60;99.90;;;;;;5093243;28;20181;-70
2023/12/14 09:14:40;;;;;;;10.30;7.83;;;13.90;99.90;;;;;;5087237;28;20172;-71
2023/12/14 09:17:06;;;;;;;10.83;8.20;;;13.80;99.90;;;;;;5094380;28;20623;-71
2023/12/14 09:19:32;;;;;;;11.37;8.00;;;13.10;99.90;;;;;;5092797;28;20196;-72
2023/12/14 09:21:58;;;;;;;11.73;7.87;;;12.60;99.90;;;;;;5073226;28;20662;-71
2023/12/14 09:24:23;;;;;;;10.80;7.70;;;11.80;99.90;;;;;;5092001;28;20194;-72
2023/12/14 09:26:49;;;;;;;11.50;8.00;;;11.50;99.90;;;;;;5079261;28;20277;-72
2023/12/14 09:29:15;;;;;;;8.43;7.43;;;11.20;99.90;;;;;;5070921;28;20528;-71
2023/12/14 09:31:44;;;;;;;8.57;7.67;;;10.90;99.90;;;;;;5094140;28;20176;-70
2023/12/14 09:34:10;;;;;;;9.53;7.57;;;10.80;99.90;;;;;;5093961;28;20172;-71
2023/12/14 09:36:36;;;;;;;12.53;7.80;;;10.70;99.90;;;;;;5093832;28;20211;-69
2023/12/14 09:39:02;;;;;;;11.23;7.93;;;10.50;99.90;;;;;;5089872;28;20176;-69
2023/12/14 09:41:28;;;;;;;10.20;7.50;;;10.30;99.90;;;;;;5090562;28;20175;-71
2023/12/14 09:43:55;;;;;;;9.33;6.77;;;10.10;99.90;;;;;;5090424;28;20234;-70
2023/12/14 09:46:21;;;;;;;8.83;6.97;;;10.00;99.90;;;;;;5086971;28;20208;-70
2023/12/14 09:48:48;;;;;;;11.67;7.30;;;9.80;99.90;;;;;;5092669;28;20179;-70
2023/12/14 09:51:14;;;;;;;9.67;7.23;;;9.90;99.90;;;;;;5093618;28;20243;-69
2023/12/14 09:53:39;;;;;;;12.00;7.57;;;9.90;99.90;;;;;;5094122;28;20254;-70
2023/12/14 09:56:05;;;;;;;11.13;7.23;;;10.00;99.90;;;;;;5092728;28;20266;-70
2023/12/14 09:58:34;;;;;;;15.97;7.00;;;9.90;99.90;;;;;;5092618;28;20176;-72
2023/12/14 10:01:04;;;;;;;9.80;6.83;;;9.80;99.90;;;;;;5092767;28;20172;-70
2023/12/14 10:03:31;;;;;;;10.20;7.33;;;9.60;99.90;;;;;;5093069;28;20164;-69
2023/12/14 10:05:58;;;;;;;10.23;6.70;;;9.50;99.90;;;;;;5092842;28;20245;-73
2023/12/14 10:08:25;;;;;;;17.00;6.90;;;9.40;99.90;;;;;;5092506;28;20212;-72
2023/12/14 10:10:52;;;;;;;14.43;7.63;;;9.50;99.90;;;;;;5091940;28;20168;-71
2023/12/14 10:13:37;;;;;;;10.17;7.00;;;9.40;99.90;;;;;;5093044;28;20176;-72
2023/12/14 10:16:03;;;;;;;16.80;7.30;;;9.50;99.90;;;;;;5091973;28;20229;-72
2023/12/14 10:18:29;;;;;;;11.40;6.40;;;9.50;99.90;;;;;;5091591;28;20222;-71
2023/12/14 10:20:55;;;;;;;11.40;6.60;;;9.60;99.90;;;;;;5091321;28;20225;-72
2023/12/14 10:23:21;;;;;;;11.33;7.20;;;9.60;99.90;;;;;;5092258;28;20171;-69
2023/12/14 10:25:47;;;;;;;9.60;5.93;;;9.70;99.90;;;;;;5093681;28;20521;-71
2023/12/14 10:28:16;;;;;;;8.97;5.93;;;9.90;99.90;;;;;;5095941;28;20212;-71
2023/12/14 10:30:42;;;;;;;7.90;6.23;;;9.80;99.90;;;;;;5092468;28;20267;-70
2023/12/14 10:33:08;;;;;;;10.53;6.73;;;9.60;99.90;;;;;;5092333;28;20593;-72
2023/12/14 10:35:34;;;;;;;15.03;6.17;;;9.60;99.90;;;;;;5092520;28;20215;-70
2023/12/14 10:38:04;;;;;;;11.60;6.30;;;9.40;99.90;;;;;;5092093;28;20719;-70
2023/12/14 10:40:31;;;;;;;9.90;5.63;;;9.50;99.90;;;;;;5091873;28;20176;-70
2023/12/14 10:42:59;;;;;;;9.40;5.30;;;9.50;99.90;;;;;;5091670;28;20178;-70
2023/12/14 10:45:29;;;;;;;8.53;5.27;;;9.50;99.90;;;;;;5083913;28;20275;-71
2023/12/14 10:47:56;;;;;;;9.47;6.03;;;9.60;99.90;;;;;;5084643;28;20207;-72
2023/12/14 10:50:23;;;;;;;11.83;6.10;;;9.60;99.90;;;;;;5086705;28;20172;-72
2023/12/14 10:52:49;;;;;;;9.30;5.70;;;9.60;99.90;;;;;;5091319;28;20179;-71
2023/12/14 10:55:39;;;;;;;12.30;5.40;;;9.60;99.90;;;;;;5091826;28;20176;-71
2023/12/14 10:58:05;;;;;;;8.73;5.27;;;9.70;99.90;;;;;;5091402;28;20239;-73
2023/12/14 11:00:31;;;;;;;13.03;5.87;;;9.80;99.90;;;;;;5092014;28;20186;-73
2023/12/14 11:02:59;;;;;;;8.33;5.03;;;10.00;99.90;;;;;;5089113;28;20338;-71
2023/12/14 11:05:29;;;;;;;7.53;5.07;;;10.10;99.90;;;;;;5087936;28;20164;-70
2023/12/14 11:08:00;;;;;;;7.97;5.10;;;10.20;99.90;;;;;;5091487;28;20234;-69
2023/12/14 11:10:46;;;;;;;8.20;4.13;;;10.20;99.90;;;;;;5091225;28;20304;-69
2023/12/14 11:13:14;;;;;;;8.00;4.80;;;10.40;99.90;;;;;;5091525;28;20214;-69
2023/12/14 11:15:51;;;;;;;8.60;4.57;;;10.30;99.90;;;;;;5091545;28;20176;-69
2023/12/14 11:18:24;;;;;;;7.33;4.50;;;10.20;99.90;;;;;;5084683;28;20193;-71
2023/12/14 11:20:54;;;;;;;10.13;5.33;;;10.30;99.90;;;;;;5077354;28;20681;-70
2023/12/14 11:23:25;;;;;;;6.07;5.43;;;10.20;99.90;;;;;;5082700;28;20168;-69
2023/12/14 11:25:53;;;;;;;8.37;4.47;;;10.20;99.90;;;;;;5065993;28;20498;-69
2023/12/14 11:28:19;;;;;;;12.03;4.23;;;10.20;99.90;;;;;;5077970;28;20200;-71
2023/12/14 11:30:46;;;;;;;9.77;4.93;;;10.20;99.90;;;;;;5091439;28;20576;-71
2023/12/14 11:33:16;;;;;;;7.00;5.13;;;10.20;99.90;;;;;;5073024;28;20575;-69
2023/12/14 11:35:41;;;;;;;10.17;5.60;;;10.20;99.90;;;;;;5090645;28;20175;-71
2023/12/14 11:38:12;;;;;;;11.63;5.63;;;10.20;99.90;;;;;;5091439;28;20236;-70
2023/12/14 11:40:42;;;;;;;11.80;6.43;;;10.10;99.90;;;;;;5075296;28;20172;-71
2023/12/14 11:43:08;;;;;;;12.50;6.43;;;10.00;99.90;;;;;;5091071;28;20172;-72
2023/12/14 11:45:38;;;;;;;11.87;6.90;;;10.00;99.90;;;;;;5091537;28;20179;-71
2023/12/14 11:48:10;;;;;;;11.50;7.30;;;9.90;99.90;;;;;;5105753;28;20236;-71
2023/12/14 11:50:42;;;;;;;14.60;7.03;;;9.90;99.90;;;;;;5094118;28;20200;-71
2023/12/14 11:53:09;;;;;;;12.67;7.63;;;10.00;99.90;;;;;;5090984;28;20203;-70
2023/12/14 11:55:39;;;;;;;12.37;7.47;;;9.70;99.90;;;;;;5091202;28;20180;-70
2023/12/14 11:58:06;;;;;;;16.07;7.50;;;9.50;99.90;;;;;;5090605;28;20172;-71
2023/12/14 12:00:32;;;;;;;14.10;8.27;;;9.30;99.90;;;;;;5090426;28;20172;-71
2023/12/14 12:03:14;;;;;;;17.87;8.03;;;9.30;99.90;;;;;;5091995;28;20211;-69
2023/12/14 12:05:41;;;;;;;15.23;7.77;;;9.20;99.90;;;;;;5095822;28;20179;-70
2023/12/14 12:08:09;;;;;;;13.87;7.20;;;9.30;99.90;;;;;;5096038;28;20337;-71
2023/12/14 12:10:35;;;;;;;11.47;7.03;;;9.30;99.90;;;;;;5095582;28;20167;-71
2023/12/14 12:13:06;;;;;;;14.23;8.00;;;9.40;99.90;;;;;;5095813;28;20278;-71
2023/12/14 12:15:35;;;;;;;10.70;7.93;;;9.40;99.90;;;;;;5096048;28;20218;-70
2023/12/14 12:18:08;;;;;;;20.90;12.23;;;9.50;99.90;;;;;;5095306;28;20706;-70
2023/12/14 12:20:34;;;;;;;13.87;8.03;;;9.50;99.90;;;;;;5095180;28;20614;-71
2023/12/14 12:23:01;;;;;;;18.53;8.50;;;9.10;99.90;;;;;;5095765;28;20168;-71
2023/12/14 12:25:27;;;;;;;14.17;8.07;;;9.20;99.90;;;;;;5095385;28;20175;-70
2023/12/14 12:27:55;;;;;;;16.93;8.73;;;9.30;99.90;;;;;;5095225;28;20276;-70
2023/12/14 12:30:21;;;;;;;14.47;8.50;;;9.30;99.90;;;;;;5095685;28;20262;-70
2023/12/14 12:32:47;;;;;;;11.13;7.73;;;9.40;99.90;;;;;;5095324;28;20262;-71
2023/12/14 12:35:13;;;;;;;11.37;7.80;;;9.40;99.90;;;;;;5094036;28;20554;-70